createdAt,value
2018-04-16T00:00:17.700Z,15.35
2018-04-16T00:02:45.605Z,16.40
2018-04-16T00:05:13.218Z,17.50
2018-04-16T00:07:40.915Z,15.30
2018-04-16T00:10:08.596Z,18.12
2018-04-16T00:12:36.219Z,17.92
2018-04-16T00:15:03.874Z,17.75
2018-04-16T00:17:31.497Z,18.77
2018-04-16T00:19:59.906Z,19.00
2018-04-16T00:22:27.557Z,19.30
2018-04-16T00:24:55.345Z,20.37
2018-04-16T00:27:22.925Z,18.33
2018-04-16T00:29:50.562Z,19.92
2018-04-16T00:32:23.911Z,20.12
2018-04-16T00:34:57.394Z,20.40
2018-04-16T00:37:31.677Z,19.73
2018-04-16T00:40:05.032Z,21.00
2018-04-16T00:56:09.951Z,18.92
2018-04-16T00:58:44.828Z,20.30
2018-04-16T01:01:18.207Z,21.12
2018-04-16T01:03:52.205Z,19.42
2018-04-16T01:06:26.374Z,19.10
2018-04-16T01:08:59.702Z,18.77
2018-04-16T01:11:33.678Z,19.10
2018-04-16T01:14:07.054Z,21.77
2018-04-16T01:16:40.270Z,18.10
2018-04-16T01:19:13.630Z,18.73
2018-04-16T01:21:46.869Z,20.58
2018-04-16T01:24:20.279Z,19.17
2018-04-16T01:26:53.516Z,18.80
2018-04-16T01:29:26.865Z,19.30
2018-04-16T01:32:00.059Z,19.65
2018-04-16T01:34:33.386Z,19.27
2018-04-16T01:40:08.931Z,19.98
2018-04-16T01:45:47.753Z,17.83
2018-04-16T01:48:21.095Z,18.55
2018-04-16T01:50:55.187Z,19.73
2018-04-16T01:53:28.541Z,19.40
2018-04-16T01:56:01.734Z,20.90
2018-04-16T01:58:35.136Z,18.70
2018-04-16T02:01:08.456Z,18.02
2018-04-16T02:03:41.949Z,19.67
2018-04-16T02:06:15.324Z,19.80
2018-04-16T02:08:48.498Z,20.88
2018-04-16T02:14:19.908Z,20.42
2018-04-16T02:16:53.524Z,20.20
2018-04-16T02:19:26.850Z,20.73
2018-04-16T02:22:00.772Z,20.15
2018-04-16T02:24:33.961Z,20.20
2018-04-16T02:27:07.338Z,21.05
2018-04-16T02:29:40.501Z,21.52
2018-04-16T02:32:13.627Z,20.40
2018-04-16T02:34:47.799Z,20.67
2018-04-16T02:37:20.968Z,19.27
2018-04-16T02:39:54.289Z,20.33
2018-04-16T02:42:27.424Z,20.08
2018-04-16T02:45:00.769Z,19.33
2018-04-16T02:47:34.062Z,19.20
2018-04-16T02:53:12.290Z,18.60
2018-04-16T02:55:45.955Z,19.62
2018-04-16T02:58:19.129Z,19.02
2018-04-16T03:00:52.497Z,18.00
2018-04-16T03:03:25.772Z,20.15
2018-04-16T03:05:59.159Z,18.67
2018-04-16T03:08:32.439Z,19.37
2018-04-16T03:11:05.747Z,18.55
2018-04-16T03:13:39.661Z,20.08
2018-04-16T03:16:13.021Z,20.88
2018-04-16T03:18:46.449Z,21.65
2018-04-16T03:21:20.813Z,20.20
2018-04-16T03:23:54.746Z,22.62
2018-04-16T03:29:27.959Z,22.37
2018-04-16T03:32:03.495Z,22.85
2018-04-16T03:34:36.773Z,22.98
2018-04-16T03:37:10.782Z,22.05
2018-04-16T03:39:43.967Z,22.55
2018-04-16T03:42:17.324Z,21.95
2018-04-16T03:44:50.782Z,24.37
2018-04-16T03:47:23.896Z,23.45
2018-04-16T03:49:57.256Z,21.30
2018-04-16T03:52:31.404Z,21.98
2018-04-16T03:55:05.515Z,24.45
2018-04-16T03:57:33.169Z,22.75
2018-04-16T04:00:00.821Z,23.25
2018-04-16T04:02:28.504Z,22.30
2018-04-16T04:04:56.168Z,21.60
2018-04-16T04:07:23.780Z,22.75
2018-04-16T04:09:51.437Z,23.08
2018-04-16T04:12:19.067Z,24.10
2018-04-16T04:14:46.766Z,22.95
2018-04-16T04:17:14.432Z,22.55
2018-04-16T04:19:42.063Z,20.50
2018-04-16T04:22:10.441Z,22.52
2018-04-16T04:24:49.880Z,23.60
2018-04-16T04:27:29.217Z,22.40
2018-04-16T04:30:08.700Z,22.65
2018-04-16T04:32:36.311Z,23.42
2018-04-16T04:35:03.914Z,24.73
2018-04-16T04:37:32.517Z,23.75
2018-04-16T04:40:01.266Z,22.33
2018-04-16T04:42:28.967Z,24.55
2018-04-16T04:44:56.604Z,24.02
2018-04-16T04:47:24.231Z,25.60
2018-04-16T04:49:51.837Z,25.85
2018-04-16T04:52:19.521Z,25.40
2018-04-16T04:54:47.892Z,25.67
2018-04-16T04:57:15.862Z,24.95
2018-04-16T04:59:44.253Z,24.95
2018-04-16T05:02:12.707Z,26.08
2018-04-16T05:04:40.325Z,27.90
2018-04-16T05:07:07.969Z,26.08
2018-04-16T05:09:36.287Z,26.33
2018-04-16T05:12:04.714Z,26.08
2018-04-16T05:14:33.051Z,25.90
2018-04-16T05:17:00.836Z,26.08
2018-04-16T05:19:28.447Z,27.10
2018-04-16T05:21:56.100Z,25.37
2018-04-16T05:24:23.769Z,26.08
2018-04-16T05:26:51.371Z,24.83
2018-04-16T05:29:19.041Z,24.75
2018-04-16T05:31:46.782Z,22.48
2018-04-16T05:34:14.432Z,21.27
2018-04-16T05:36:42.077Z,22.05
2018-04-16T05:39:09.739Z,20.27
2018-04-16T05:41:37.449Z,21.08
2018-04-16T05:44:05.189Z,17.98
2018-04-16T05:46:32.858Z,18.15
2018-04-16T05:49:00.478Z,17.15
2018-04-16T05:51:28.109Z,16.20
2018-04-16T05:53:56.480Z,19.65
2018-04-16T05:56:24.909Z,16.70
2018-04-16T05:58:52.934Z,14.75
2018-04-16T06:01:20.527Z,13.27
2018-04-16T06:03:48.110Z,13.93
2018-04-16T06:06:15.719Z,13.00
2018-04-16T06:08:43.374Z,12.33
2018-04-16T06:11:11.048Z,13.17
2018-04-16T06:13:38.839Z,11.63
2018-04-16T06:16:06.406Z,10.87
2018-04-16T06:18:34.064Z,11.43
2018-04-16T06:21:01.728Z,11.20
2018-04-16T06:23:29.472Z,10.40
2018-04-16T06:25:57.874Z,13.30
2018-04-16T06:28:25.498Z,12.77
2018-04-16T06:30:53.149Z,11.80
2018-04-16T06:33:20.787Z,15.67
2018-04-16T06:35:48.499Z,15.53
2018-04-16T06:38:16.451Z,15.30
2018-04-16T06:40:44.096Z,17.45
2018-04-16T06:43:11.745Z,16.73
2018-04-16T06:45:39.345Z,15.95
2018-04-16T06:48:07.036Z,19.10
2018-04-16T06:50:34.695Z,15.77
2018-04-16T06:53:02.315Z,17.10
2018-04-16T06:55:30.070Z,18.43
2018-04-16T06:57:57.755Z,18.17
2018-04-16T07:00:25.517Z,18.33
2018-04-16T07:02:53.184Z,17.80
2018-04-16T07:05:21.631Z,19.93
2018-04-16T07:07:49.317Z,18.50
2018-04-16T07:10:16.997Z,20.80
2018-04-16T07:12:45.376Z,19.30
2018-04-16T07:15:13.846Z,20.83
2018-04-16T07:17:41.624Z,20.73
2018-04-16T07:20:10.020Z,20.10
2018-04-16T07:22:37.629Z,20.50
2018-04-16T07:25:05.346Z,21.97
2018-04-16T07:27:32.980Z,21.57
2018-04-16T07:30:00.603Z,20.00
2018-04-16T07:32:28.204Z,19.90
2018-04-16T07:34:56.641Z,19.10
2018-04-16T07:37:24.324Z,19.27
2018-04-16T07:39:52.241Z,18.43
2018-04-16T07:42:19.893Z,18.00
2018-04-16T07:44:47.531Z,17.43
2018-04-16T07:47:15.183Z,18.53
2018-04-16T07:49:42.885Z,19.53
2018-04-16T07:52:10.517Z,21.10
2018-04-16T07:54:38.857Z,20.80
2018-04-16T07:57:06.504Z,20.47
2018-04-16T07:59:35.010Z,18.77
2018-04-16T08:02:03.456Z,20.10
2018-04-16T08:04:31.085Z,21.10
2018-04-16T08:06:59.491Z,20.13
2018-04-16T08:09:27.886Z,17.23
2018-04-16T08:11:55.542Z,22.57
2018-04-16T08:14:23.316Z,20.67
2018-04-16T08:16:50.929Z,18.77
2018-04-16T08:19:18.593Z,20.50
2018-04-16T08:21:46.453Z,20.13
2018-04-16T08:24:14.182Z,19.33
2018-04-16T08:26:41.839Z,18.10
2018-04-16T08:29:09.511Z,19.37
2018-04-16T08:31:37.194Z,19.50
2018-04-16T08:34:04.842Z,18.37
2018-04-16T08:36:32.507Z,22.13
2018-04-16T08:39:00.167Z,20.47
2018-04-16T08:41:27.802Z,19.30
2018-04-16T08:43:55.417Z,17.43
2018-04-16T08:46:23.129Z,19.97
2018-04-16T08:48:51.098Z,18.40
2018-04-16T08:51:18.715Z,16.80
2018-04-16T08:53:46.378Z,18.83
2018-04-16T08:56:13.957Z,20.30
2018-04-16T08:58:41.568Z,20.47
2018-04-16T09:01:09.330Z,18.40
2018-04-16T09:03:37.057Z,16.20
2018-04-16T09:06:04.789Z,15.27
2018-04-16T09:08:32.449Z,15.10
2018-04-16T09:11:00.110Z,15.07
2018-04-16T09:13:27.773Z,13.70
2018-04-16T09:15:56.254Z,14.00
2018-04-16T09:18:23.916Z,14.50
2018-04-16T09:20:52.355Z,13.50
2018-04-16T09:23:19.965Z,14.47
2018-04-16T09:25:47.596Z,14.60
2018-04-16T09:28:15.291Z,13.33
2018-04-16T09:30:43.827Z,14.03
2018-04-16T09:33:11.450Z,10.50
2018-04-16T09:35:39.845Z,10.70
2018-04-16T09:38:08.318Z,11.13
2018-04-16T09:40:36.240Z,10.27
2018-04-16T09:43:03.927Z,9.57
2018-04-16T09:45:31.548Z,8.33
2018-04-16T09:47:59.315Z,7.40
2018-04-16T09:50:27.421Z,6.67
2018-04-16T09:52:55.084Z,9.40
2018-04-16T09:55:22.814Z,7.90
2018-04-16T09:57:50.513Z,8.40
2018-04-16T10:00:18.338Z,7.27
2018-04-16T11:21:48.732Z,9.63
2018-04-16T11:24:16.536Z,8.27
2018-04-16T11:26:44.231Z,8.67
2018-04-16T11:29:11.868Z,10.07
2018-04-16T11:31:39.495Z,9.90
2018-04-16T11:34:07.148Z,11.60
2018-04-16T11:36:34.812Z,9.67
2018-04-16T11:39:02.588Z,9.10
2018-04-16T11:41:30.955Z,10.77
2018-04-16T11:43:58.632Z,10.20
2018-04-16T11:46:26.393Z,11.50
2018-04-16T11:48:54.041Z,11.00
2018-04-16T11:51:21.848Z,10.30
2018-04-16T11:53:49.478Z,11.83
2018-04-16T11:56:17.921Z,11.43
2018-04-16T11:58:45.529Z,11.10
2018-04-16T12:01:13.168Z,11.30
2018-04-16T12:03:40.791Z,11.47
2018-04-16T12:06:08.457Z,11.20
2018-04-16T12:08:36.059Z,13.23
2018-04-16T12:11:03.996Z,12.20
2018-04-16T12:13:31.618Z,13.20
2018-04-16T12:16:00.139Z,13.53
2018-04-16T12:18:27.925Z,14.67
2018-04-16T12:20:55.593Z,13.73
2018-04-16T12:23:23.578Z,11.20
2018-04-16T12:25:51.960Z,11.00
2018-04-16T12:28:20.093Z,10.30
2018-04-16T12:30:47.741Z,10.60
2018-04-16T12:33:15.352Z,11.57
2018-04-16T12:35:42.982Z,10.30
2018-04-16T12:38:10.728Z,9.30
2018-04-16T12:40:38.549Z,9.90
2018-04-16T12:43:08.277Z,8.77
2018-04-16T12:45:37.618Z,9.00
2018-04-16T12:48:05.277Z,13.00
2018-04-16T12:50:33.011Z,12.77
2018-04-16T12:53:01.523Z,10.33
2018-04-16T12:55:29.302Z,10.10
2018-04-16T12:57:56.932Z,9.10
2018-04-16T13:00:24.695Z,8.93
2018-04-16T13:02:52.313Z,8.93
2018-04-16T13:05:19.995Z,8.07
2018-04-16T13:07:48.778Z,9.77
2018-04-16T13:10:16.469Z,9.50
2018-04-16T13:12:44.090Z,11.00
2018-04-16T13:15:11.680Z,12.70
2018-04-16T13:17:40.177Z,11.03
2018-04-16T13:20:07.829Z,12.50
2018-04-16T13:22:35.495Z,9.70
2018-04-16T13:25:03.114Z,8.83
2018-04-16T13:27:30.798Z,9.27
2018-04-16T13:29:59.256Z,8.40
2018-04-16T13:32:26.861Z,9.47
2018-04-16T13:34:54.521Z,9.57
2018-04-16T13:37:22.141Z,14.43
2018-04-16T13:39:49.758Z,10.90
2018-04-16T13:42:17.465Z,9.60
2018-04-16T13:44:45.141Z,8.57
2018-04-16T13:47:12.894Z,12.00
2018-04-16T13:49:40.617Z,7.50
2018-04-16T13:52:08.282Z,6.33
2018-04-16T13:54:35.940Z,6.10
2018-04-16T13:57:03.655Z,7.50
2018-04-16T13:59:31.375Z,7.90
2018-04-16T14:01:58.941Z,8.30
2018-04-16T14:04:26.862Z,7.77
2018-04-16T14:06:55.230Z,9.37
2018-04-16T14:09:22.931Z,7.90
2018-04-16T14:11:50.657Z,8.23
2018-04-16T14:14:19.038Z,9.90
2018-04-16T14:16:46.671Z,9.10
2018-04-16T14:19:14.281Z,7.80
2018-04-16T14:21:41.899Z,8.37
2018-04-16T14:24:09.556Z,7.90
2018-04-16T14:26:38.282Z,7.73
2018-04-16T14:29:06.025Z,6.83
2018-04-16T14:31:33.911Z,5.90
2018-04-16T14:34:01.603Z,6.70
2018-04-16T14:36:29.275Z,5.33
2018-04-16T14:38:56.978Z,4.70
2018-04-16T14:41:24.667Z,5.20
2018-04-16T14:43:54.162Z,5.10
2018-04-16T14:46:21.918Z,4.10
2018-04-16T14:48:52.654Z,4.53
2018-04-16T14:54:06.605Z,4.40
2018-04-16T14:59:49.709Z,3.27
2018-04-16T15:02:17.612Z,3.77
2018-04-16T15:04:45.247Z,3.50
2018-04-16T15:07:12.926Z,4.70
2018-04-16T15:09:40.854Z,6.50
2018-04-16T15:12:14.276Z,6.50
2018-04-16T15:17:23.192Z,5.53
2018-04-16T15:22:37.974Z,3.80
2018-04-16T15:25:20.913Z,3.70
2018-04-16T15:27:53.257Z,3.77
2018-04-16T15:30:20.932Z,3.43
2018-04-16T15:32:48.666Z,3.73
2018-04-16T15:35:16.264Z,4.37
2018-04-16T15:37:43.944Z,3.30
2018-04-16T15:40:11.682Z,3.00
2018-04-16T15:42:39.288Z,2.90
2018-04-16T15:45:07.047Z,2.97
2018-04-16T15:47:34.813Z,2.03
2018-04-16T15:50:02.466Z,2.63
2018-04-16T15:52:30.321Z,2.60
2018-04-16T15:54:58.083Z,2.67
2018-04-16T15:57:25.835Z,3.07
2018-04-16T15:59:53.610Z,2.50
2018-04-16T16:02:21.500Z,2.70
2018-04-16T16:04:49.099Z,3.03
2018-04-16T16:07:17.574Z,2.90
2018-04-16T16:09:45.270Z,3.23
2018-04-16T16:12:13.004Z,3.07
2018-04-16T16:14:40.822Z,2.57
2018-04-16T16:17:08.468Z,2.43
2018-04-16T16:19:36.100Z,2.20
2018-04-16T16:22:04.487Z,2.20
2018-04-16T16:24:33.130Z,2.20
2018-04-16T16:27:00.892Z,2.03
2018-04-16T16:29:28.801Z,2.00
2018-04-16T16:31:56.574Z,2.60
2018-04-16T16:34:25.041Z,2.07
2018-04-16T16:36:52.661Z,2.10
2018-04-16T16:39:20.246Z,2.03
2018-04-16T16:41:48.934Z,2.70
2018-04-16T16:44:16.600Z,2.80
2018-04-16T16:46:44.359Z,1.90
2018-04-16T16:49:12.975Z,2.70
2018-04-16T16:51:40.706Z,2.13
2018-04-16T16:54:08.524Z,3.03
2018-04-16T16:56:36.276Z,2.63
2018-04-16T16:59:03.991Z,2.63
2018-04-16T17:01:31.662Z,2.03
2018-04-16T17:03:59.388Z,2.40
2018-04-16T17:06:27.082Z,2.47
2018-04-16T17:08:54.746Z,2.83
2018-04-16T17:11:23.174Z,2.60
2018-04-16T17:13:51.553Z,2.30
2018-04-16T17:16:20.357Z,2.80
2018-04-16T17:18:48.239Z,3.10
2018-04-16T17:21:15.860Z,2.40
2018-04-16T17:23:43.794Z,3.03
2018-04-16T17:26:11.537Z,3.17
2018-04-16T17:28:39.250Z,3.00
2018-04-16T17:31:07.689Z,2.60
2018-04-16T17:36:09.162Z,2.60
2018-04-16T17:38:36.883Z,3.00
2018-04-16T17:41:04.659Z,2.70
2018-04-16T17:43:32.297Z,2.83
2018-04-16T17:46:00.635Z,3.73
2018-04-16T17:48:28.276Z,2.57
2018-04-16T17:50:55.880Z,2.60
2018-04-16T17:53:23.557Z,2.80
2018-04-16T17:55:51.251Z,2.53
2018-04-16T17:58:18.891Z,3.13
2018-04-16T18:00:46.641Z,2.60
2018-04-16T18:03:14.252Z,2.60
2018-04-16T18:05:41.949Z,2.70
2018-04-16T18:08:09.579Z,3.30
2018-04-16T18:10:37.313Z,3.30
2018-04-16T18:13:05.907Z,3.37
2018-04-16T18:15:33.636Z,3.27
2018-04-16T18:18:02.124Z,3.80
2018-04-16T18:20:29.786Z,3.73
2018-04-16T18:22:57.974Z,3.87
2018-04-16T18:25:26.017Z,2.90
2018-04-16T18:27:57.493Z,4.53
2018-04-16T18:30:25.168Z,3.60
2018-04-16T18:32:53.467Z,3.47
2018-04-16T18:35:25.959Z,3.77
2018-04-16T18:37:53.613Z,3.73
2018-04-16T18:40:25.093Z,3.67
2018-04-16T18:42:52.783Z,4.33
2018-04-16T18:45:20.476Z,4.30
2018-04-16T18:47:48.178Z,3.70
2018-04-16T18:50:15.835Z,4.00
2018-04-16T18:52:43.625Z,3.87
2018-04-16T18:55:11.395Z,4.30
2018-04-16T18:57:39.031Z,4.60
2018-04-16T19:00:06.658Z,3.83
2018-04-16T19:02:40.697Z,3.60
2018-04-16T19:05:13.597Z,4.50
2018-04-16T19:07:41.270Z,4.90
2018-04-16T19:10:09.141Z,4.13
2018-04-16T19:12:37.652Z,4.03
2018-04-16T19:15:05.339Z,4.57
2018-04-16T19:17:32.962Z,3.17
2018-04-16T19:20:01.317Z,4.50
2018-04-16T19:22:29.276Z,4.40
2018-04-16T19:24:58.948Z,3.20
2018-04-16T19:27:33.243Z,3.93
2018-04-16T19:30:00.859Z,4.10
2018-04-16T19:32:35.364Z,3.60
2018-04-16T19:35:07.783Z,4.07
2018-04-16T19:37:35.600Z,4.60
2018-04-16T19:40:03.224Z,4.10
2018-04-16T19:42:36.485Z,3.63
2018-04-16T19:45:04.094Z,4.47
2018-04-16T19:47:31.687Z,3.87
2018-04-16T19:50:05.157Z,5.03
2018-04-16T19:52:32.839Z,4.60
2018-04-16T19:55:00.645Z,3.53
2018-04-16T19:57:34.767Z,3.95
2018-04-16T20:00:03.235Z,4.85
2018-04-16T20:02:37.377Z,3.83
2018-04-16T20:05:06.228Z,5.75
2018-04-16T20:07:33.917Z,4.10
2018-04-16T20:10:01.586Z,4.50
2018-04-16T20:12:30.130Z,4.57
2018-04-16T20:14:59.639Z,4.25
2018-04-16T20:17:29.075Z,5.35
2018-04-16T20:19:56.739Z,4.37
2018-04-16T20:22:24.539Z,4.70
2018-04-16T20:24:52.250Z,4.30
2018-04-16T20:27:23.000Z,4.43
2018-04-16T20:29:50.668Z,4.03
2018-04-16T20:32:18.285Z,4.32
2018-04-16T20:34:45.917Z,7.03
2018-04-16T20:37:13.782Z,3.85
2018-04-16T20:39:41.916Z,5.00
2018-04-16T20:42:09.650Z,4.90
2018-04-16T20:44:37.320Z,4.47
2018-04-16T20:47:05.099Z,5.12
2018-04-16T20:49:32.805Z,3.92
2018-04-16T20:52:00.480Z,4.07
2018-04-16T20:54:28.122Z,4.75
2018-04-16T20:57:02.013Z,4.35
2018-04-16T20:59:29.689Z,4.00
2018-04-16T21:01:57.350Z,4.32
2018-04-16T21:04:25.318Z,4.57
2018-04-16T21:06:53.011Z,5.40
2018-04-16T21:09:20.953Z,4.37
2018-04-16T21:11:48.677Z,4.05
2018-04-16T21:14:16.764Z,4.45
2018-04-16T21:16:44.382Z,3.95
2018-04-16T21:19:12.060Z,4.25
2018-04-16T21:21:40.169Z,3.80
2018-04-16T21:24:07.890Z,3.60
2018-04-16T21:26:35.678Z,4.35
2018-04-16T21:29:03.339Z,3.72
2018-04-16T21:31:30.955Z,3.90
2018-04-16T21:33:58.538Z,4.05
2018-04-16T21:36:26.111Z,4.07
2018-04-16T21:38:53.722Z,5.28
2018-04-16T21:41:21.341Z,4.53
2018-04-16T21:43:49.045Z,3.80
2018-04-16T21:46:16.834Z,4.65
2018-04-16T21:48:44.809Z,4.30
2018-04-16T21:51:12.427Z,6.57
2018-04-16T21:53:40.062Z,4.93
2018-04-16T21:56:07.762Z,4.40
2018-04-16T21:58:35.433Z,4.68
2018-04-16T22:01:03.219Z,4.78
2018-04-16T22:03:30.886Z,4.50
2018-04-16T22:05:58.947Z,4.95
2018-04-16T22:08:26.590Z,5.43
2018-04-16T22:10:54.198Z,4.85
2018-04-16T22:13:21.873Z,4.55
2018-04-16T22:15:49.584Z,5.25
2018-04-16T22:18:18.043Z,4.45
2018-04-16T22:20:45.888Z,4.90
2018-04-16T22:23:13.529Z,4.28
2018-04-16T22:25:41.462Z,4.75
2018-04-16T22:28:09.055Z,4.95
2018-04-16T22:30:37.516Z,4.75
2018-04-16T22:33:05.172Z,5.50
2018-04-16T22:35:32.813Z,5.50
2018-04-16T22:38:00.579Z,4.90
2018-04-16T22:40:29.178Z,4.78
2018-04-16T22:42:56.852Z,5.65
2018-04-16T22:45:24.458Z,5.28
2018-04-16T22:47:52.112Z,4.30
2018-04-16T22:50:19.764Z,4.57
2018-04-16T22:52:47.404Z,5.75
2018-04-16T22:55:15.044Z,4.93
2018-04-16T22:57:42.634Z,5.32
2018-04-16T23:00:11.125Z,6.65
2018-04-16T23:02:38.791Z,5.68
2018-04-16T23:05:07.261Z,5.60
2018-04-16T23:07:34.895Z,4.95
2018-04-16T23:10:03.009Z,6.12
2018-04-16T23:12:30.597Z,5.30
2018-04-16T23:14:59.072Z,5.72
2018-04-16T23:17:26.700Z,5.65
2018-04-16T23:19:54.336Z,5.75
2018-04-16T23:22:22.610Z,7.55
2018-04-16T23:24:50.235Z,5.43
2018-04-16T23:27:17.944Z,5.68
2018-04-16T23:29:45.631Z,6.03
2018-04-16T23:32:13.235Z,5.00
2018-04-16T23:34:41.648Z,5.20
2018-04-16T23:37:09.323Z,6.15
2018-04-16T23:39:36.957Z,6.75
2018-04-16T23:42:04.625Z,6.68
2018-04-16T23:44:32.232Z,6.85
2018-04-16T23:46:59.888Z,7.03
2018-04-16T23:49:27.519Z,6.30
2018-04-16T23:51:55.173Z,5.57
2018-04-16T23:54:22.765Z,6.40
2018-04-16T23:56:50.424Z,6.35
2018-04-16T23:59:18.041Z,7.30
